Time;durP1;ratioP1;P1;durP2;ratioP2;P2;SDS_P1;SDS_P2;PMS_P1;PMS_P2;Temp;Humidity;BMP_temperature;BMP_pressure;BME280_temperature;BME280_humidity;BME280_pressure;Samples;Min_cycle;Max_cycle;Signal;HPM_P1;HPM_P2
2023/10/07 00:01:24;;;;;;;32.10;9.40;;;10.80;1.00;;;;;;5009930;28;20423;-69
2023/10/07 00:03:53;;;;;;;17.17;7.07;;;10.80;1.00;;;;;;5016667;28;20482;-70
2023/10/07 00:06:27;;;;;;;21.30;7.30;;;11.00;1.00;;;;;;5014469;28;20423;-70
2023/10/07 00:09:10;;;;;;;11.50;5.20;;;10.90;1.00;;;;;;5027543;28;20454;-78
2023/10/07 00:11:48;;;;;;;15.20;4.77;;;10.90;1.00;;;;;;5020398;28;20454;-78
2023/10/07 00:14:18;;;;;;;11.57;5.27;;;10.80;1.00;;;;;;5022830;28;20411;-77
2023/10/07 00:17:17;;;;;;;19.80;6.87;;;10.80;1.00;;;;;;5003528;28;20952;-78
2023/10/07 00:20:11;;;;;;;17.83;7.23;;;10.70;1.00;;;;;;5014502;28;20428;-78
2023/10/07 00:26:29;;;;;;;22.77;6.30;;;10.80;1.00;;;;;;5018726;28;20941;-78
2023/10/07 00:29:39;;;;;;;14.03;5.73;;;10.80;1.00;;;;;;5028879;28;20419;-78
2023/10/07 00:32:33;;;;;;;24.57;7.07;;;10.80;1.00;;;;;;5017439;28;20513;-77
2023/10/07 00:35:00;;;;;;;26.60;7.50;;;10.80;1.00;;;;;;5008880;28;20436;-78
2023/10/07 00:37:26;;;;;;;21.77;6.77;;;10.80;1.00;;;;;;5005584;28;20427;-70
2023/10/07 00:39:53;;;;;;;38.07;10.60;;;10.80;1.00;;;;;;5020735;28;20436;-70
2023/10/07 00:42:22;;;;;;;27.50;8.10;;;10.80;1.00;;;;;;5012994;28;20928;-70
2023/10/07 00:44:52;;;;;;;45.87;12.03;;;10.80;1.00;;;;;;5023091;28;20436;-70
2023/10/07 00:47:19;;;;;;;26.60;7.30;;;10.90;1.00;;;;;;5022999;28;20415;-70
2023/10/07 00:52:28;;;;;;;23.50;8.20;;;11.00;1.00;;;;;;5014378;28;20767;-70
2023/10/07 00:55:37;;;;;;;25.00;8.50;;;11.00;1.00;;;;;;5021053;28;20423;-70
2023/10/07 00:58:03;;;;;;;20.70;7.47;;;11.00;1.00;;;;;;5002839;28;20775;-70
2023/10/07 01:03:13;;;;;;;27.73;7.70;;;11.10;1.00;;;;;;5008599;28;20428;-70
2023/10/07 01:05:44;;;;;;;31.80;7.37;;;11.00;1.00;;;;;;5006866;28;20174;-70
2023/10/07 01:08:20;;;;;;;17.83;6.80;;;11.00;1.00;;;;;;5022781;28;20443;-78
2023/10/07 01:14:00;;;;;;;27.43;7.27;;;10.90;1.00;;;;;;5007799;28;20446;-78
2023/10/07 01:16:43;;;;;;;20.40;6.90;;;10.90;1.00;;;;;;5013100;28;20435;-78
2023/10/07 01:19:35;;;;;;;26.40;6.27;;;10.90;1.00;;;;;;5027559;28;20909;-78
2023/10/07 01:22:35;;;;;;;18.73;7.00;;;10.90;1.00;;;;;;5016609;28;20423;-78
2023/10/07 01:25:09;;;;;;;33.77;8.90;;;10.80;1.00;;;;;;5005646;28;20447;-70
2023/10/07 01:27:42;;;;;;;23.77;6.77;;;10.70;1.00;;;;;;5013248;28;20447;-70
2023/10/07 01:30:16;;;;;;;22.07;7.03;;;10.70;1.00;;;;;;5018266;28;20426;-70
2023/10/07 01:35:39;;;;;;;22.60;7.30;;;10.50;1.00;;;;;;4970274;28;20441;-70
2023/10/07 01:39:01;;;;;;;18.53;6.90;;;10.50;1.00;;;;;;4972598;28;20521;-78
2023/10/07 01:41:37;;;;;;;24.33;7.67;;;10.40;1.00;;;;;;4972781;28;20429;-78
2023/10/07 01:44:06;;;;;;;15.77;7.10;;;10.40;1.00;;;;;;4972582;28;20435;-78
2023/10/07 01:47:24;;;;;;;24.43;7.97;;;10.40;1.00;;;;;;4978605;28;20436;-79
2023/10/07 01:50:12;;;;;;;26.37;5.67;;;10.40;1.00;;;;;;4957446;28;20437;-78
2023/10/07 01:52:46;;;;;;;21.60;7.00;;;10.40;1.00;;;;;;4970559;28;20476;-77
2023/10/07 01:55:13;;;;;;;21.30;7.03;;;10.30;1.00;;;;;;4971314;28;20429;-70
2023/10/07 01:57:41;;;;;;;21.87;7.20;;;10.20;1.00;;;;;;4963939;28;20513;-70
2023/10/07 02:00:11;;;;;;;18.83;6.90;;;10.20;1.00;;;;;;4969211;28;20483;-70
2023/10/07 02:03:01;;;;;;;16.93;6.33;;;10.20;1.00;;;;;;4967712;28;20445;-70
2023/10/07 02:05:25;;;;;;;26.80;7.17;;;10.20;1.00;;;;;;4970124;28;20439;-70
2023/10/07 02:07:54;;;;;;;23.03;8.17;;;10.10;1.00;;;;;;4971891;28;20427;-70
2023/10/07 02:10:25;;;;;;;21.93;7.03;;;10.10;1.00;;;;;;4966832;28;20438;-70
2023/10/07 02:12:54;;;;;;;23.97;7.57;;;10.10;1.00;;;;;;4988860;28;20577;-70
2023/10/07 02:15:20;;;;;;;37.13;7.47;;;10.10;1.00;;;;;;5011969;28;21888;-70
2023/10/07 02:17:47;;;;;;;21.83;5.90;;;10.00;1.00;;;;;;5021598;28;20432;-70
2023/10/07 02:20:25;;;;;;;22.40;6.77;;;10.00;1.00;;;;;;5015777;28;21028;-70
2023/10/07 02:22:52;;;;;;;22.80;7.87;;;10.00;1.00;;;;;;5016218;28;20431;-70
2023/10/07 02:25:26;;;;;;;19.87;6.30;;;9.90;1.00;;;;;;5019865;28;20426;-70
2023/10/07 02:27:54;;;;;;;20.93;7.03;;;9.90;1.00;;;;;;5022447;28;20426;-70
2023/10/07 02:30:20;;;;;;;31.20;7.70;;;9.90;1.00;;;;;;5012917;28;20436;-69
2023/10/07 02:32:47;;;;;;;25.20;8.50;;;10.00;1.00;;;;;;5008361;28;20961;-70
2023/10/07 02:35:19;;;;;;;20.53;7.10;;;9.80;1.00;;;;;;5008160;28;20479;-69
2023/10/07 02:37:49;;;;;;;19.07;7.07;;;9.70;1.00;;;;;;5004060;28;20497;-70
2023/10/07 02:40:20;;;;;;;16.70;6.73;;;9.70;1.00;;;;;;5014882;28;20411;-70
2023/10/07 02:42:46;;;;;;;16.10;5.57;;;9.60;1.00;;;;;;4997497;28;20424;-70
2023/10/07 02:45:20;;;;;;;22.63;6.63;;;9.60;1.00;;;;;;5011073;28;20923;-70
2023/10/07 02:47:51;;;;;;;13.43;6.57;;;9.60;1.00;;;;;;5013790;28;20444;-70
2023/10/07 02:50:20;;;;;;;19.73;6.37;;;9.60;1.00;;;;;;5015434;28;20800;-70
2023/10/07 02:52:46;;;;;;;20.20;7.23;;;9.60;1.00;;;;;;5011071;28;20459;-70
2023/10/07 02:57:43;;;;;;;23.73;7.60;;;9.40;1.00;;;;;;4995025;28;20428;-70
2023/10/07 03:00:16;;;;;;;19.70;7.40;;;9.40;1.00;;;;;;5008766;28;20790;-70
2023/10/07 03:02:49;;;;;;;24.70;6.93;;;9.40;1.00;;;;;;5011519;28;20518;-70
2023/10/07 03:05:26;;;;;;;23.10;8.07;;;9.30;1.00;;;;;;5011462;28;20497;-70
2023/10/07 03:08:01;;;;;;;22.87;6.97;;;9.30;1.00;;;;;;5004567;28;20439;-70
2023/10/07 03:13:02;;;;;;;24.47;8.30;;;9.20;1.00;;;;;;5012124;28;20832;-70
2023/10/07 03:16:09;;;;;;;26.23;8.03;;;9.30;1.00;;;;;;5010793;28;20437;-70
2023/10/07 03:18:24;;;;;;;29.57;7.60;;;9.20;1.00;;;;;;5014801;28;20473;-70
2023/10/07 03:21:11;;;;;;;15.87;6.57;;;9.20;1.00;;;;;;5016098;28;20424;-70
2023/10/07 03:23:45;;;;;;;22.90;7.90;;;9.20;1.00;;;;;;5011196;28;20428;-70
2023/10/07 03:26:37;;;;;;;19.60;6.40;;;9.20;1.00;;;;;;5009266;28;20423;-78
2023/10/07 03:29:07;;;;;;;18.93;6.07;;;9.20;1.00;;;;;;5028632;28;20424;-78
2023/10/07 03:34:11;;;;;;;11.93;6.27;;;9.10;1.00;;;;;;5025329;28;20455;-77
2023/10/07 03:40:25;;;;;;;21.80;6.63;;;9.10;1.00;;;;;;5014577;28;20411;-70
2023/10/07 03:42:51;;;;;;;18.30;7.37;;;9.10;1.00;;;;;;5011304;28;20964;-70
2023/10/07 03:45:17;;;;;;;25.53;7.07;;;9.00;1.00;;;;;;5011088;28;20423;-70
2023/10/07 03:47:46;;;;;;;17.33;6.40;;;9.00;1.00;;;;;;5004273;28;20165;-70
2023/10/07 03:50:29;;;;;;;18.83;6.80;;;9.00;1.00;;;;;;5021503;28;20534;-70
2023/10/07 03:52:55;;;;;;;24.87;6.90;;;9.00;1.00;;;;;;5022333;28;20467;-70
2023/10/07 03:56:00;;;;;;;13.30;5.17;;;9.30;1.00;;;;;;5012123;28;20935;-78
2023/10/07 03:58:27;;;;;;;17.93;6.37;;;9.00;1.00;;;;;;5014794;28;20818;-76
2023/10/07 04:07:37;;;;;;;16.23;6.23;;;9.10;3.70;;;;;;5029332;28;20465;-80
2023/10/07 04:10:36;;;;;;;16.93;5.40;;;9.10;5.10;;;;;;5004192;28;20452;-81
2023/10/07 04:13:07;;;;;;;25.43;6.60;;;9.10;5.40;;;;;;5016410;28;20206;-81
2023/10/07 04:16:22;;;;;;;24.73;7.80;;;9.10;6.80;;;;;;5015028;28;20431;-81
2023/10/07 04:22:18;;;;;;;13.73;5.57;;;9.10;6.70;;;;;;5006599;28;20484;-81
2023/10/07 04:28:06;;;;;;;21.50;8.20;;;9.10;7.70;;;;;;5011383;28;20458;-76
2023/10/07 04:30:46;;;;;;;17.20;7.77;;;9.10;9.10;;;;;;5015166;28;20511;-76
2023/10/07 04:33:39;;;;;;;24.13;7.10;;;9.10;10.80;;;;;;5016563;28;20467;-76
2023/10/07 04:36:10;;;;;;;11.00;5.63;;;9.20;11.90;;;;;;5021198;28;20438;-76
2023/10/07 04:38:56;;;;;;;25.90;7.03;;;9.20;11.40;;;;;;5025913;28;20897;-76
2023/10/07 04:42:03;;;;;;;22.53;7.10;;;9.40;11.40;;;;;;4996444;28;20919;-77
2023/10/07 04:45:21;;;;;;;18.30;6.77;;;9.40;11.50;;;;;;5015611;28;20423;-77
2023/10/07 04:47:49;;;;;;;16.73;6.60;;;9.40;10.10;;;;;;5020999;28;20399;-76
2023/10/07 04:50:33;;;;;;;18.90;6.47;;;9.40;9.40;;;;;;5022102;28;20510;-77
2023/10/07 04:53:25;;;;;;;16.93;6.30;;;9.50;9.40;;;;;;5030874;28;20558;-76
2023/10/07 04:56:33;;;;;;;22.37;6.20;;;9.50;9.60;;;;;;5019802;28;20423;-81
2023/10/07 04:59:06;;;;;;;16.83;6.47;;;9.60;8.50;;;;;;5028855;28;20428;-81
2023/10/07 05:01:33;;;;;;;15.43;6.73;;;9.70;8.80;;;;;;5030122;28;20407;-80
2023/10/07 05:04:18;;;;;;;21.97;7.57;;;9.70;9.50;;;;;;5020870;28;20443;-81
2023/10/07 05:06:54;;;;;;;23.20;6.67;;;9.90;9.10;;;;;;5014213;28;20767;-81
2023/10/07 05:09:36;;;;;;;24.77;7.20;;;9.80;9.40;;;;;;5022744;28;20430;-80
2023/10/07 05:12:24;;;;;;;22.00;6.90;;;9.90;10.70;;;;;;5015270;28;20887;-81
2023/10/07 05:18:16;;;;;;;22.33;7.00;;;10.00;9.20;;;;;;5012762;28;20582;-81
2023/10/07 05:20:48;;;;;;;18.83;6.80;;;10.10;8.90;;;;;;5013757;28;20436;-81
2023/10/07 05:23:24;;;;;;;16.60;6.63;;;10.10;8.20;;;;;;5018699;28;20800;-81
2023/10/07 05:25:54;;;;;;;21.50;7.63;;;10.20;9.20;;;;;;5004699;28;20940;-82
2023/10/07 05:31:42;;;;;;;39.43;10.50;;;10.20;6.60;;;;;;5009599;28;20471;-80
2023/10/07 05:34:08;;;;;;;46.77;9.00;;;10.30;9.20;;;;;;5011799;28;20449;-80
2023/10/07 05:43:18;;;;;;;21.30;7.20;;;10.50;11.90;;;;;;5015971;28;20415;-80
2023/10/07 05:49:21;;;;;;;23.63;8.00;;;10.50;18.90;;;;;;5012612;28;20227;-80
2023/10/07 05:52:18;;;;;;;28.03;8.80;;;10.60;19.00;;;;;;5031429;28;20462;-80
2023/10/07 05:55:02;;;;;;;21.63;8.33;;;10.70;18.60;;;;;;5016103;28;20443;-80
2023/10/07 06:01:00;;;;;;;29.37;8.40;;;10.80;17.50;;;;;;5014120;28;20387;-78
2023/10/07 06:06:49;;;;;;;23.37;9.30;;;11.00;13.80;;;;;;5013195;28;20458;-76
2023/10/07 06:09:24;;;;;;;23.80;9.50;;;11.10;10.80;;;;;;5021474;28;20808;-76
2023/10/07 06:12:07;;;;;;;26.93;9.13;;;11.10;8.20;;;;;;5022432;28;20862;-80
2023/10/07 06:21:27;;;;;;;31.40;9.60;;;11.30;1.10;;;;;;5020075;28;20434;-81
2023/10/07 06:31:31;;;;;;;23.17;8.43;;;11.60;1.00;;;;;;5008542;28;20418;-76
2023/10/07 06:34:03;;;;;;;42.67;9.03;;;11.70;1.00;;;;;;5005782;28;20451;-76
2023/10/07 06:36:31;;;;;;;17.53;7.20;;;11.70;1.00;;;;;;5012661;28;20440;-77
2023/10/07 06:42:30;;;;;;;17.10;7.17;;;11.90;1.00;;;;;;5019386;28;20449;-80
2023/10/07 06:48:23;;;;;;;16.17;7.37;;;12.00;1.00;;;;;;5024285;28;20886;-81
2023/10/07 06:55:06;;;;;;;18.00;6.40;;;12.10;1.00;;;;;;5025370;28;20418;-80
2023/10/07 06:57:36;;;;;;;19.40;6.50;;;12.20;1.00;;;;;;5016323;28;20516;-80
2023/10/07 07:04:09;;;;;;;18.70;7.00;;;12.30;1.00;;;;;;5010716;28;20421;-80
2023/10/07 07:06:42;;;;;;;19.73;7.70;;;12.50;1.00;;;;;;5020027;28;20423;-81
2023/10/07 07:13:13;;;;;;;14.30;6.00;;;12.60;1.00;;;;;;5023354;28;20501;-81
2023/10/07 07:16:06;;;;;;;27.97;8.60;;;12.60;1.00;;;;;;5014256;28;20917;-80
2023/10/07 07:18:32;;;;;;;29.83;8.23;;;12.60;1.00;;;;;;5027462;28;20455;-81
2023/10/07 07:23:51;;;;;;;17.23;6.50;;;12.80;1.00;;;;;;5014147;28;20415;-81
2023/10/07 07:26:30;;;;;;;14.20;6.60;;;12.60;1.00;;;;;;5026006;28;20426;-80
2023/10/07 07:32:18;;;;;;;13.70;5.40;;;12.70;1.00;;;;;;5033673;28;20432;-81
2023/10/07 07:34:45;;;;;;;22.10;7.90;;;12.80;1.00;;;;;;5023670;28;20436;-81
2023/10/07 07:37:54;;;;;;;19.90;7.10;;;12.80;1.00;;;;;;5020756;28;20188;-81
2023/10/07 07:40:37;;;;;;;14.60;6.43;;;12.90;1.00;;;;;;5023045;28;20944;-81
2023/10/07 07:43:07;;;;;;;18.83;6.43;;;13.00;1.00;;;;;;5036331;28;20920;-78
2023/10/07 07:46:08;;;;;;;12.00;6.13;;;13.20;1.00;;;;;;5012970;28;20547;-77
2023/10/07 07:49:19;;;;;;;35.47;9.23;;;13.00;1.00;;;;;;5019581;28;20429;-77
2023/10/07 07:52:01;;;;;;;18.27;7.37;;;13.00;1.00;;;;;;5013405;28;20476;-77
2023/10/07 07:55:05;;;;;;;15.57;6.60;;;13.10;1.00;;;;;;5009739;28;20886;-77
2023/10/07 07:57:31;;;;;;;18.90;7.10;;;13.20;1.00;;;;;;5027592;28;20502;-80
2023/10/07 07:59:58;;;;;;;15.53;6.60;;;13.20;1.00;;;;;;5015964;28;20513;-81
2023/10/07 08:09:31;;;;;;;20.47;7.00;;;13.70;1.00;;;;;;5022486;28;20930;-81
2023/10/07 08:12:00;;;;;;;15.07;6.37;;;13.80;1.00;;;;;;5019856;28;20463;-81
2023/10/07 08:17:56;;;;;;;24.53;5.83;;;14.10;1.00;;;;;;5016156;28;20431;-77
2023/10/07 08:20:33;;;;;;;13.87;5.93;;;14.30;1.00;;;;;;5017550;28;20392;-71
2023/10/07 08:23:16;;;;;;;24.63;6.97;;;14.40;1.00;;;;;;5022172;28;20865;-71
2023/10/07 08:25:49;;;;;;;18.63;7.00;;;14.60;1.00;;;;;;5017120;28;20501;-70
2023/10/07 08:28:18;;;;;;;16.13;6.90;;;14.70;1.00;;;;;;5027598;28;20928;-78
2023/10/07 08:34:31;;;;;;;13.27;5.57;;;14.90;1.00;;;;;;4996094;28;20391;-77
2023/10/07 08:43:46;;;;;;;27.63;7.90;;;14.60;1.00;;;;;;5030379;28;20408;-71
2023/10/07 08:46:19;;;;;;;15.57;6.20;;;14.70;1.00;;;;;;5011246;28;20417;-70
2023/10/07 08:48:58;;;;;;;23.63;7.13;;;15.00;1.00;;;;;;5012278;28;20395;-70
2023/10/07 08:51:24;;;;;;;25.50;7.40;;;15.20;1.00;;;;;;5011152;28;20433;-70
2023/10/07 08:54:05;;;;;;;25.10;7.50;;;15.40;1.00;;;;;;5008643;28;20895;-70
2023/10/07 08:56:35;;;;;;;41.90;10.00;;;15.70;1.00;;;;;;5009283;28;20435;-70
2023/10/07 08:59:26;;;;;;;15.97;6.17;;;15.80;1.00;;;;;;5019542;28;20391;-79
2023/10/07 09:02:36;;;;;;;29.80;7.33;;;15.90;1.00;;;;;;5023115;28;20433;-79
2023/10/07 09:05:09;;;;;;;11.80;5.13;;;16.30;1.00;;;;;;5015094;28;20882;-79
2023/10/07 09:08:12;;;;;;;20.40;6.17;;;16.50;1.00;;;;;;5002486;28;20416;-79
2023/10/07 09:10:39;;;;;;;20.17;6.33;;;16.60;1.00;;;;;;5025373;28;20395;-79
2023/10/07 09:13:12;;;;;;;16.20;6.67;;;16.50;1.00;;;;;;5008320;28;20802;-70
2023/10/07 09:15:42;;;;;;;18.03;7.63;;;16.50;1.00;;;;;;5014337;28;20483;-70
2023/10/07 09:18:10;;;;;;;21.70;6.20;;;16.50;1.00;;;;;;5013144;28;20408;-70
2023/10/07 09:20:45;;;;;;;17.40;6.00;;;16.70;1.00;;;;;;5010553;28;20481;-70
2023/10/07 09:23:22;;;;;;;20.97;6.47;;;16.60;1.00;;;;;;5008559;28;20527;-70
2023/10/07 09:25:55;;;;;;;22.87;7.20;;;16.50;1.00;;;;;;5011893;28;20416;-70
2023/10/07 09:29:14;;;;;;;18.20;6.30;;;16.70;1.00;;;;;;5010667;28;20444;-79
2023/10/07 09:32:04;;;;;;;21.70;6.13;;;16.60;1.00;;;;;;5009380;28;20453;-79
2023/10/07 09:34:55;;;;;;;17.73;5.93;;;16.50;1.00;;;;;;5034210;28;20460;-79
2023/10/07 09:37:53;;;;;;;13.37;5.80;;;16.60;1.00;;;;;;5026895;28;20393;-79
2023/10/07 09:43:19;;;;;;;27.27;7.80;;;17.20;1.00;;;;;;5030210;28;20455;-70
2023/10/07 09:45:52;;;;;;;33.33;7.43;;;17.20;1.00;;;;;;5014636;28;20484;-70
2023/10/07 09:48:31;;;;;;;15.73;6.30;;;17.30;1.00;;;;;;5014849;28;20433;-70
2023/10/07 09:51:02;;;;;;;20.03;6.87;;;17.10;1.00;;;;;;5024307;28;20504;-70
2023/10/07 09:53:54;;;;;;;45.87;11.20;;;17.00;1.00;;;;;;5018223;28;20431;-70
2023/10/07 09:56:58;;;;;;;15.00;6.77;;;17.10;1.00;;;;;;5015735;28;20395;-70
2023/10/07 10:00:00;;;;;;;15.63;6.57;;;17.30;1.00;;;;;;5016263;28;20802;-79
2023/10/07 10:03:20;;;;;;;9.63;4.80;;;17.70;1.00;;;;;;5029056;28;20427;-78
2023/10/07 10:06:33;;;;;;;25.43;7.03;;;17.90;1.00;;;;;;4998654;28;20413;-78
2023/10/07 10:09:09;;;;;;;14.50;5.17;;;17.80;1.00;;;;;;4988331;28;20427;-77
2023/10/07 10:17:53;;;;;;;15.10;5.50;;;18.10;1.00;;;;;;5011399;28;20415;-80
2023/10/07 10:20:42;;;;;;;11.77;5.03;;;18.30;1.00;;;;;;4996257;28;20842;-80
2023/10/07 10:23:22;;;;;;;11.43;5.13;;;18.40;1.00;;;;;;4997655;28;20475;-80
2023/10/07 10:32:36;;;;;;;9.27;4.70;;;18.40;1.00;;;;;;5001894;28;20449;-81
2023/10/07 10:35:24;;;;;;;12.87;5.40;;;18.40;1.00;;;;;;4996155;28;20493;-80
2023/10/07 10:41:48;;;;;;;8.30;4.93;;;18.80;1.00;;;;;;4995129;28;20834;-80
2023/10/07 10:44:16;;;;;;;15.43;6.40;;;18.60;1.00;;;;;;4995331;28;20389;-71
2023/10/07 10:46:49;;;;;;;14.17;5.60;;;18.80;1.00;;;;;;5030286;28;20964;-71
2023/10/07 10:49:17;;;;;;;16.57;5.90;;;19.00;1.00;;;;;;5016367;28;20446;-71
2023/10/07 10:51:48;;;;;;;13.20;4.93;;;19.10;1.00;;;;;;5014450;28;20439;-71
2023/10/07 10:54:21;;;;;;;15.20;5.60;;;19.30;1.00;;;;;;4997150;28;20860;-71
2023/10/07 10:56:58;;;;;;;17.73;5.60;;;19.50;1.00;;;;;;5007451;28;20777;-71
2023/10/07 10:59:47;;;;;;;8.70;4.80;;;19.50;1.00;;;;;;5009824;28;20936;-79
2023/10/07 11:02:17;;;;;;;10.10;5.27;;;19.50;1.00;;;;;;5012377;28;21136;-79
2023/10/07 11:05:30;;;;;;;15.23;5.30;;;19.10;1.00;;;;;;5026273;28;20422;-79
2023/10/07 11:14:41;;;;;;;23.43;6.47;;;19.40;1.00;;;;;;5010930;28;20461;-81
2023/10/07 11:17:57;;;;;;;16.10;5.70;;;19.30;1.00;;;;;;5017145;28;20826;-79
2023/10/07 11:20:49;;;;;;;19.33;5.50;;;19.70;1.00;;;;;;4986580;28;20462;-78
2023/10/07 11:26:49;;;;;;;10.17;4.60;;;20.30;1.00;;;;;;4983594;28;20489;-78
2023/10/07 11:29:22;;;;;;;6.67;4.07;;;20.00;1.00;;;;;;4991523;28;20789;-73
2023/10/07 11:31:58;;;;;;;8.80;4.17;;;19.90;1.00;;;;;;4989578;28;20539;-78
2023/10/07 11:34:36;;;;;;;9.20;4.33;;;20.00;1.00;;;;;;4997183;28;20430;-78
2023/10/07 11:37:32;;;;;;;9.20;3.93;;;20.00;1.00;;;;;;4987596;28;20441;-78
2023/10/07 11:40:36;;;;;;;24.13;6.27;;;20.20;1.00;;;;;;4993426;28;20488;-78
2023/10/07 11:43:12;;;;;;;13.63;4.73;;;20.20;1.00;;;;;;4996720;28;20462;-78
2023/10/07 11:45:39;;;;;;;8.87;4.60;;;20.30;1.00;;;;;;5002927;28;20503;-78
2023/10/07 11:48:44;;;;;;;10.03;5.17;;;20.40;1.00;;;;;;4999159;28;20443;-78
2023/10/07 11:57:52;;;;;;;10.93;4.87;;;20.50;1.00;;;;;;5017019;28;20764;-77
2023/10/07 12:00:28;;;;;;;10.03;4.60;;;20.30;1.00;;;;;;5015616;28;20431;-78
2023/10/07 12:06:24;;;;;;;14.77;5.10;;;20.10;1.00;;;;;;5015278;28;20400;-78
2023/10/07 12:09:06;;;;;;;11.77;4.43;;;20.30;1.00;;;;;;5016607;28;20413;-78
2023/10/07 12:11:32;;;;;;;10.00;4.63;;;20.20;1.00;;;;;;5008532;28;20421;-81
2023/10/07 12:14:31;;;;;;;13.80;4.23;;;20.20;1.00;;;;;;5014914;28;20493;-83
2023/10/07 12:17:01;;;;;;;6.57;3.00;;;20.40;1.00;;;;;;5013129;28;20442;-79
2023/10/07 12:19:32;;;;;;;10.07;4.07;;;20.50;1.00;;;;;;5008458;28;20453;-79
2023/10/07 12:22:00;;;;;;;14.80;4.83;;;20.50;1.00;;;;;;5028375;28;20430;-80
2023/10/07 12:24:31;;;;;;;7.33;3.90;;;20.60;1.00;;;;;;5028001;28;20419;-80
2023/10/07 12:27:01;;;;;;;10.63;3.60;;;20.80;1.00;;;;;;5022139;28;20529;-78
2023/10/07 12:29:30;;;;;;;10.77;4.00;;;20.80;1.00;;;;;;5018214;28;20419;-79
2023/10/07 12:32:06;;;;;;;8.47;4.00;;;20.90;1.00;;;;;;5018831;28;21003;-82
2023/10/07 12:41:54;;;;;;;20.03;4.77;;;21.10;1.00;;;;;;5008412;28;20541;-81
2023/10/07 12:44:25;;;;;;;8.13;3.33;;;21.10;1.00;;;;;;5015759;28;20369;-82
2023/10/07 12:46:54;;;;;;;6.40;2.70;;;21.20;1.00;;;;;;5034250;28;20411;-79
2023/10/07 12:49:22;;;;;;;5.60;2.60;;;21.10;1.00;;;;;;5023269;28;20411;-79
2023/10/07 12:52:36;;;;;;;4.07;3.20;;;21.10;1.00;;;;;;5015175;28;20558;-81
2023/10/07 12:55:07;;;;;;;5.00;2.73;;;21.10;1.00;;;;;;5016989;28;20432;-78
2023/10/07 13:00:55;;;;;;;20.93;4.27;;;;;;;;;;5013956;28;20439;-79
2023/10/07 13:03:54;;;;;;;10.00;2.90;;;21.20;1.00;;;;;;5019668;28;20891;-79
2023/10/07 13:16:37;;;;;;;20.83;4.93;;;21.90;1.00;;;;;;5012745;28;20517;-79
2023/10/07 13:19:35;;;;;;;6.80;2.57;;;21.90;1.00;;;;;;5017687;28;20532;-79
2023/10/07 13:25:24;;;;;;;9.70;3.53;;;21.70;1.00;;;;;;5011401;28;20408;-79
2023/10/07 13:32:00;;;;;;;20.17;4.10;;;21.90;1.00;;;;;;5006154;28;20462;-84
2023/10/07 13:37:49;;;;;;;15.73;4.00;;;22.20;1.00;;;;;;5007889;28;20927;-82
2023/10/07 13:40:24;;;;;;;9.90;3.00;;;22.20;1.00;;;;;;5016343;28;20438;-82
2023/10/07 13:42:54;;;;;;;5.00;2.57;;;22.20;1.00;;;;;;5018948;28;20426;-83
2023/10/07 13:45:28;;;;;;;4.73;2.73;;;22.30;1.00;;;;;;5025630;28;20944;-82
2023/10/07 13:48:36;;;;;;;4.10;2.77;;;22.30;1.00;;;;;;5007683;28;20532;-80
2023/10/07 13:51:06;;;;;;;14.67;3.27;;;22.30;1.00;;;;;;5014099;28;20483;-79
2023/10/07 13:57:36;;;;;;;3.73;2.70;;;22.30;1.00;;;;;;5012273;28;20412;-80
2023/10/07 14:00:45;;;;;;;12.10;3.67;;;22.30;1.00;;;;;;5015658;28;20463;-79
2023/10/07 14:07:05;;;;;;;8.33;3.30;;;22.40;1.00;;;;;;5023964;28;20428;-83
2023/10/07 14:16:26;;;;;;;9.73;3.30;;;22.20;1.00;;;;;;5014430;28;20404;-82
2023/10/07 14:25:37;;;;;;;18.43;4.23;;;22.00;1.00;;;;;;5017177;28;20928;-81
2023/10/07 14:28:54;;;;;;;9.57;3.43;;;22.20;1.00;;;;;;5015351;28;20506;-82
2023/10/07 14:31:24;;;;;;;6.90;2.97;;;22.10;1.00;;;;;;5015262;28;20436;-81
2023/10/07 14:34:07;;;;;;;15.73;3.70;;;22.20;1.00;;;;;;5021993;28;20742;-85
2023/10/07 14:36:54;;;;;;;6.33;3.10;;;22.20;1.00;;;;;;5011162;28;20429;-85
2023/10/07 14:39:30;;;;;;;6.13;3.07;;;22.30;1.00;;;;;;5010379;28;20479;-84
2023/10/07 14:45:57;;;;;;;6.43;2.70;;;22.40;1.00;;;;;;5013740;28;20432;-83
2023/10/07 14:52:12;;;;;;;6.93;3.20;;;22.40;1.00;;;;;;5032781;28;20454;-80
2023/10/07 14:54:38;;;;;;;10.83;3.80;;;22.10;1.00;;;;;;5020477;28;20483;-79
2023/10/07 15:04:24;;;;;;;12.90;3.17;;;22.20;1.00;;;;;;5011166;28;20478;-80
2023/10/07 15:06:55;;;;;;;5.57;2.80;;;22.30;1.00;;;;;;5002792;28;20461;-80
2023/10/07 15:09:24;;;;;;;9.93;3.70;;;22.40;1.00;;;;;;5009173;28;20491;-80
2023/10/07 15:12:07;;;;;;;10.13;3.40;;;22.40;1.00;;;;;;5014538;28;20957;-80
2023/10/07 15:14:37;;;;;;;8.27;3.10;;;22.60;1.00;;;;;;4998823;28;20473;-80
2023/10/07 15:17:06;;;;;;;7.13;2.83;;;22.60;1.00;;;;;;5013325;28;20413;-80
2023/10/07 15:19:36;;;;;;;15.63;4.13;;;22.90;1.00;;;;;;5016902;28;20842;-80
2023/10/07 15:22:06;;;;;;;13.90;2.97;;;23.00;1.00;;;;;;5028346;28;20983;-80
2023/10/07 15:24:37;;;;;;;5.10;3.13;;;23.50;1.00;;;;;;5015960;28;20908;-80
2023/10/07 15:27:06;;;;;;;6.97;3.30;;;24.10;1.00;;;;;;5011170;28;20427;-80
2023/10/07 15:29:38;;;;;;;7.10;3.30;;;24.40;1.00;;;;;;5015904;28;20769;-80
2023/10/07 15:32:06;;;;;;;15.17;3.73;;;24.60;1.00;;;;;;5022971;28;21106;-80
2023/10/07 15:34:36;;;;;;;5.77;2.83;;;24.70;1.00;;;;;;5030587;28;20435;-83
2023/10/07 15:37:06;;;;;;;6.97;3.20;;;24.60;1.00;;;;;;5021356;28;20423;-83
2023/10/07 15:39:42;;;;;;;4.40;2.63;;;24.80;1.00;;;;;;5031349;28;20467;-83
2023/10/07 15:42:12;;;;;;;5.20;2.80;;;24.70;1.00;;;;;;5025108;28;21152;-82
2023/10/07 15:48:12;;;;;;;4.70;3.10;;;24.50;1.00;;;;;;5024225;28;20486;-82
2023/10/07 15:50:42;;;;;;;8.47;3.43;;;24.10;1.00;;;;;;5024758;28;20778;-83
2023/10/07 15:56:30;;;;;;;8.80;3.43;;;23.10;1.00;;;;;;5020410;28;20525;-83
2023/10/07 15:59:37;;;;;;;27.63;5.10;;;22.60;1.00;;;;;;5023888;28;20503;-83
2023/10/07 16:02:05;;;;;;;17.63;4.80;;;22.40;1.00;;;;;;5013410;28;20244;-85
2023/10/07 16:04:36;;;;;;;7.00;3.40;;;22.10;1.00;;;;;;5015753;28;20412;-83
2023/10/07 16:07:06;;;;;;;10.53;3.00;;;22.00;1.00;;;;;;5009877;28;20977;-83
2023/10/07 16:13:12;;;;;;;5.93;2.93;;;21.70;1.00;;;;;;5022228;28;20464;-83
2023/10/07 16:16:07;;;;;;;9.30;3.23;;;21.40;1.00;;;;;;4998071;28;20918;-85
2023/10/07 16:22:12;;;;;;;11.17;3.60;;;21.10;1.00;;;;;;5013067;28;20857;-82
2023/10/07 16:28:00;;;;;;;11.83;3.83;;;20.60;1.00;;;;;;5012229;28;20513;-83
2023/10/07 16:30:48;;;;;;;9.33;3.07;;;20.50;1.00;;;;;;5018675;28;20512;-83
2023/10/07 16:37:07;;;;;;;6.27;2.60;;;20.30;1.00;;;;;;5025939;28;20416;-80
2023/10/07 16:43:00;;;;;;;10.10;3.40;;;20.00;1.00;;;;;;5014280;28;20433;-80
2023/10/07 16:45:43;;;;;;;4.43;2.90;;;20.00;1.00;;;;;;5022349;28;20955;-79
2023/10/07 16:49:00;;;;;;;19.70;3.43;;;19.60;1.00;;;;;;5031468;28;20419;-81
2023/10/07 16:54:48;;;;;;;16.00;3.70;;;19.40;1.00;;;;;;5005620;28;20430;-84
2023/10/07 17:04:01;;;;;;;11.97;3.73;;;19.10;1.00;;;;;;5014598;28;21320;-78
2023/10/07 17:10:24;;;;;;;13.20;4.00;;;19.00;1.00;;;;;;5005513;28;20407;-79
2023/10/07 17:16:16;;;;;;;10.40;3.77;;;19.00;1.00;;;;;;5008045;28;20810;-79
2023/10/07 17:18:42;;;;;;;25.43;4.67;;;19.00;1.00;;;;;;5043633;28;20945;-87
2023/10/07 17:21:54;;;;;;;25.50;3.43;;;19.00;1.00;;;;;;5014288;28;20404;-85
2023/10/07 17:27:48;;;;;;;19.63;4.67;;;18.90;1.00;;;;;;5014816;28;20549;-82
2023/10/07 17:37:00;;;;;;;17.10;3.50;;;18.80;1.00;;;;;;5014026;28;20905;-84
2023/10/07 17:46:48;;;;;;;12.97;3.30;;;18.60;1.00;;;;;;5022594;28;20398;-82
2023/10/07 17:49:20;;;;;;;4.50;2.90;;;18.60;1.00;;;;;;5007533;28;20460;-83
2023/10/07 17:52:24;;;;;;;9.70;3.47;;;18.50;1.00;;;;;;5001270;28;20412;-82
2023/10/07 17:55:31;;;;;;;12.40;3.70;;;18.50;1.00;;;;;;5016687;28;20406;-83
2023/10/07 17:58:21;;;;;;;7.83;3.50;;;18.60;1.00;;;;;;5028127;28;20427;-83
2023/10/07 18:01:18;;;;;;;7.73;3.37;;;18.60;1.00;;;;;;5015155;28;20438;-82
2023/10/07 18:03:48;;;;;;;8.23;3.10;;;18.70;1.00;;;;;;5010339;28;20406;-83
2023/10/07 18:06:19;;;;;;;12.97;3.87;;;18.60;1.00;;;;;;5027971;28;20430;-82
2023/10/07 18:09:10;;;;;;;6.87;3.27;;;18.70;1.00;;;;;;5019464;28;20519;-82
2023/10/07 18:12:00;;;;;;;8.60;3.23;;;18.70;1.00;;;;;;5012265;28;20537;-83
2023/10/07 18:14:33;;;;;;;5.83;3.03;;;18.80;1.00;;;;;;5023824;28;20892;-84
2023/10/07 18:17:00;;;;;;;8.00;2.90;;;18.80;1.00;;;;;;5012212;28;20460;-83
2023/10/07 18:19:27;;;;;;;7.40;3.23;;;18.80;1.00;;;;;;5025674;28;20415;-80
2023/10/07 18:22:12;;;;;;;7.20;3.00;;;18.80;1.00;;;;;;5012831;28;20466;-78
2023/10/07 18:24:43;;;;;;;17.37;4.23;;;18.90;1.00;;;;;;5003842;28;20442;-79
2023/10/07 18:34:36;;;;;;;13.00;3.53;;;18.80;1.00;;;;;;5022336;28;20458;-79
2023/10/07 18:41:06;;;;;;;6.33;2.77;;;18.80;1.00;;;;;;5014611;28;20423;-82
2023/10/07 18:43:42;;;;;;;9.10;3.33;;;18.80;1.00;;;;;;5016540;28;20456;-84
2023/10/07 18:46:48;;;;;;;15.40;3.80;;;18.80;1.00;;;;;;5012268;28;20428;-83
2023/10/07 18:49:20;;;;;;;6.20;2.60;;;18.80;1.00;;;;;;5011102;28;20795;-82